Time;durP1;ratioP1;P1;durP2;ratioP2;P2;SDS_P1;SDS_P2;PMS_P1;PMS_P2;Temp;Humidity;BMP_temperature;BMP_pressure;BME280_temperature;BME280_humidity;BME280_pressure;Samples;Min_cycle;Max_cycle;Signal;HPM_P1;HPM_P2
2024/03/11 00:00:40;;;;;;;4.40;3.90;;;7.10;99.90;;;;;;5070948;28;20238;-60
2024/03/11 00:03:08;;;;;;;6.10;4.03;;;7.10;99.90;;;;;;5071074;28;20210;-60
2024/03/11 00:05:35;;;;;;;7.87;4.03;;;7.10;99.90;;;;;;5071597;28;20252;-60
2024/03/11 00:08:04;;;;;;;4.33;3.93;;;7.10;99.90;;;;;;5071772;28;20633;-60
2024/03/11 00:10:33;;;;;;;4.57;3.70;;;7.00;99.90;;;;;;5071431;28;20216;-60
2024/03/11 00:13:01;;;;;;;6.23;3.80;;;7.10;99.90;;;;;;5072586;28;20206;-60
2024/03/11 00:15:29;;;;;;;5.37;4.10;;;7.10;99.90;;;;;;5070447;28;20578;-60
2024/03/11 00:17:56;;;;;;;4.27;3.47;;;7.10;99.90;;;;;;5068299;28;20199;-60
2024/03/11 00:20:25;;;;;;;3.87;3.40;;;7.00;99.90;;;;;;5071733;28;20218;-60
2024/03/11 00:22:52;;;;;;;6.90;4.73;;;7.00;99.90;;;;;;5072708;28;20223;-60
2024/03/11 00:25:20;;;;;;;5.90;3.67;;;7.00;99.90;;;;;;5071423;28;20204;-60
2024/03/11 00:27:48;;;;;;;5.60;3.87;;;7.00;99.90;;;;;;5071070;28;20222;-60
2024/03/11 00:30:17;;;;;;;4.30;3.90;;;6.90;99.90;;;;;;5068049;28;20251;-60
2024/03/11 00:32:47;;;;;;;5.40;4.30;;;6.90;99.90;;;;;;5070706;28;20207;-60
2024/03/11 00:35:16;;;;;;;3.87;3.53;;;6.90;99.90;;;;;;5070759;28;20205;-60
2024/03/11 00:37:45;;;;;;;4.83;3.83;;;6.80;99.90;;;;;;5070729;28;20217;-60
2024/03/11 00:40:13;;;;;;;4.17;3.77;;;6.80;99.90;;;;;;5070456;28;20198;-60
2024/03/11 00:42:41;;;;;;;6.53;3.80;;;6.70;99.90;;;;;;5068909;28;20581;-60
2024/03/11 00:45:12;;;;;;;5.73;3.80;;;6.70;99.90;;;;;;5070215;28;20209;-60
2024/03/11 00:47:40;;;;;;;4.93;3.87;;;6.70;99.90;;;;;;5069639;28;20619;-61
2024/03/11 00:50:10;;;;;;;5.37;3.53;;;6.70;99.90;;;;;;5071854;28;20608;-60
2024/03/11 00:52:38;;;;;;;3.53;3.23;;;6.70;99.90;;;;;;5068338;28;20566;-60
2024/03/11 00:55:08;;;;;;;4.07;3.47;;;6.70;99.90;;;;;;5071757;28;20195;-60
2024/03/11 00:57:36;;;;;;;4.10;3.67;;;6.70;99.90;;;;;;5070203;28;20503;-60
2024/03/11 01:00:11;;;;;;;4.73;3.43;;;6.80;99.90;;;;;;5071743;28;20234;-60
2024/03/11 01:02:38;;;;;;;10.17;4.30;;;6.70;99.90;;;;;;5063004;28;20221;-60
2024/03/11 01:05:08;;;;;;;4.47;3.60;;;6.70;99.90;;;;;;5070202;28;20214;-60
2024/03/11 01:07:36;;;;;;;5.47;3.47;;;6.60;99.90;;;;;;5069588;28;20199;-60
2024/03/11 01:10:16;;;;;;;7.03;4.10;;;6.60;99.90;;;;;;5072346;28;20605;-60
2024/03/11 01:12:43;;;;;;;8.17;5.17;;;6.60;99.90;;;;;;5072339;28;20284;-61
2024/03/11 01:15:11;;;;;;;10.80;5.40;;;6.60;99.90;;;;;;5071720;28;20194;-60
2024/03/11 01:17:39;;;;;;;6.37;4.67;;;6.60;99.90;;;;;;5069050;28;20248;-60
2024/03/11 01:20:13;;;;;;;4.97;4.20;;;6.70;99.90;;;;;;5072130;28;20738;-60
2024/03/11 01:22:40;;;;;;;7.93;5.20;;;6.70;99.90;;;;;;5069843;28;20304;-60
2024/03/11 01:25:09;;;;;;;8.87;5.93;;;6.70;99.90;;;;;;5072206;28;20529;-60
2024/03/11 01:27:38;;;;;;;6.63;5.27;;;6.70;99.90;;;;;;5070737;28;20198;-60
2024/03/11 01:30:07;;;;;;;6.77;5.83;;;6.70;99.90;;;;;;5070948;28;20690;-60
2024/03/11 01:32:38;;;;;;;6.37;5.50;;;6.70;99.90;;;;;;5070516;28;20264;-60
2024/03/11 01:35:06;;;;;;;7.33;5.17;;;6.70;99.90;;;;;;5066682;28;20229;-60
2024/03/11 01:37:36;;;;;;;6.43;5.53;;;6.80;99.90;;;;;;5071072;28;20638;-60
2024/03/11 01:40:04;;;;;;;5.87;5.10;;;6.80;99.90;;;;;;5069606;28;20568;-60
2024/03/11 01:42:31;;;;;;;8.87;5.47;;;6.80;99.90;;;;;;5071281;28;20620;-60
2024/03/11 01:44:59;;;;;;;8.97;6.17;;;6.80;99.90;;;;;;5068576;28;20554;-60
2024/03/11 01:47:26;;;;;;;7.83;6.27;;;6.80;99.90;;;;;;5067218;28;20181;-60
2024/03/11 01:49:59;;;;;;;5.80;4.93;;;6.80;99.90;;;;;;5071387;28;20274;-60
2024/03/11 01:52:30;;;;;;;10.53;5.83;;;6.80;99.90;;;;;;5070981;28;20650;-60
2024/03/11 01:54:59;;;;;;;9.53;5.80;;;6.80;99.90;;;;;;5067123;28;20249;-60
2024/03/11 01:57:27;;;;;;;9.33;6.10;;;6.80;99.90;;;;;;5067069;28;20590;-60
2024/03/11 01:59:54;;;;;;;9.63;6.10;;;6.80;99.90;;;;;;5070172;28;20226;-60
2024/03/11 02:02:22;;;;;;;12.07;5.63;;;6.80;99.90;;;;;;5070131;28;20195;-60
2024/03/11 02:04:51;;;;;;;8.77;5.83;;;6.80;99.90;;;;;;5071231;28;20304;-60
2024/03/11 02:07:19;;;;;;;9.50;6.10;;;6.80;99.90;;;;;;5073490;28;20202;-60
2024/03/11 02:09:47;;;;;;;6.40;5.00;;;6.80;99.90;;;;;;5071700;28;20289;-61
2024/03/11 02:12:17;;;;;;;8.40;6.00;;;6.80;99.90;;;;;;5072651;28;20203;-61
2024/03/11 02:14:46;;;;;;;6.37;5.33;;;6.80;99.90;;;;;;5073904;28;20197;-60
2024/03/11 02:17:15;;;;;;;7.17;6.07;;;6.80;99.90;;;;;;5074313;28;20200;-60
2024/03/11 02:19:43;;;;;;;6.13;5.53;;;6.80;99.90;;;;;;5073381;28;20638;-60
2024/03/11 02:22:10;;;;;;;9.37;5.87;;;6.70;99.90;;;;;;5074188;28;20687;-60
2024/03/11 02:24:38;;;;;;;8.87;6.50;;;6.80;99.90;;;;;;5074502;28;20214;-60
2024/03/11 02:27:07;;;;;;;6.43;5.03;;;6.70;99.90;;;;;;5067961;28;20582;-60
2024/03/11 02:29:35;;;;;;;6.23;5.57;;;6.70;99.90;;;;;;5069289;28;20202;-60
2024/03/11 02:32:03;;;;;;;7.07;5.17;;;6.70;99.90;;;;;;5073075;28;20267;-60
2024/03/11 02:34:31;;;;;;;6.10;5.13;;;6.70;99.90;;;;;;5073415;28;20239;-60
2024/03/11 02:37:01;;;;;;;6.27;5.43;;;6.70;99.90;;;;;;5074715;28;20698;-60
2024/03/11 02:39:29;;;;;;;8.37;6.27;;;6.70;99.90;;;;;;5072632;28;20204;-60
2024/03/11 02:41:56;;;;;;;9.07;6.60;;;6.70;99.90;;;;;;5073835;28;20203;-60
2024/03/11 02:44:23;;;;;;;6.63;5.37;;;6.60;99.90;;;;;;5072228;28;20246;-61
2024/03/11 02:46:51;;;;;;;9.17;5.23;;;6.70;99.90;;;;;;5067400;28;20303;-60
2024/03/11 02:49:18;;;;;;;6.90;5.30;;;6.70;99.90;;;;;;5070068;28;20199;-60
2024/03/11 02:51:46;;;;;;;6.63;4.97;;;6.60;99.90;;;;;;5071080;28;20199;-60
2024/03/11 02:54:14;;;;;;;6.47;5.50;;;6.70;99.90;;;;;;5072144;28;20213;-60
2024/03/11 02:56:41;;;;;;;8.53;6.13;;;6.60;99.90;;;;;;5068528;28;20211;-60
2024/03/11 02:59:09;;;;;;;8.17;6.10;;;6.60;99.90;;;;;;5073783;28;20245;-60
2024/03/11 03:01:37;;;;;;;8.13;5.73;;;6.60;99.90;;;;;;5069197;28;20209;-60
2024/03/11 03:04:05;;;;;;;6.70;5.30;;;6.60;99.90;;;;;;5072914;28;20213;-60
2024/03/11 03:06:33;;;;;;;5.83;4.83;;;6.60;99.90;;;;;;5071915;28;20207;-60
2024/03/11 03:09:00;;;;;;;7.87;6.37;;;6.60;99.90;;;;;;5072387;28;20205;-60
2024/03/11 03:11:27;;;;;;;8.83;6.33;;;6.60;99.90;;;;;;5073031;28;20196;-60
2024/03/11 03:13:54;;;;;;;6.57;5.83;;;6.60;99.90;;;;;;5070383;28;20204;-60
2024/03/11 03:16:22;;;;;;;6.87;5.90;;;6.60;99.90;;;;;;5073195;28;20192;-61
2024/03/11 03:18:49;;;;;;;7.73;5.37;;;6.60;99.90;;;;;;5069630;28;20703;-60
2024/03/11 03:21:17;;;;;;;5.90;5.30;;;6.60;99.90;;;;;;5071813;28;20208;-60
2024/03/11 03:23:44;;;;;;;7.60;5.73;;;6.60;99.90;;;;;;5068208;28;20226;-60
2024/03/11 03:26:11;;;;;;;7.30;5.67;;;6.60;99.90;;;;;;5072034;28;20209;-60
2024/03/11 03:28:39;;;;;;;6.83;5.90;;;6.60;99.90;;;;;;5072935;28;20252;-60
2024/03/11 03:31:06;;;;;;;5.87;5.17;;;6.60;99.90;;;;;;5071729;28;20335;-60
2024/03/11 03:33:33;;;;;;;6.97;5.93;;;6.60;99.90;;;;;;5073320;28;20330;-61
2024/03/11 03:36:02;;;;;;;8.37;5.57;;;6.60;99.90;;;;;;5072753;28;20631;-60
2024/03/11 03:38:30;;;;;;;5.70;5.17;;;6.50;99.90;;;;;;5073349;28;20209;-61
2024/03/11 03:40:57;;;;;;;6.10;5.43;;;6.50;99.90;;;;;;5072983;28;20210;-60
2024/03/11 03:43:25;;;;;;;5.60;4.43;;;6.50;99.90;;;;;;5071978;28;20219;-61
2024/03/11 03:45:53;;;;;;;7.17;5.00;;;6.50;99.90;;;;;;5073196;28;20538;-61
2024/03/11 03:48:21;;;;;;;7.60;4.73;;;6.50;99.90;;;;;;5068581;28;20207;-61
2024/03/11 03:50:49;;;;;;;5.30;4.80;;;6.40;99.90;;;;;;5072745;28;20198;-61
2024/03/11 03:53:18;;;;;;;5.83;4.80;;;6.40;99.90;;;;;;5072779;28;20220;-61
2024/03/11 03:55:45;;;;;;;7.37;4.90;;;6.30;99.90;;;;;;5071569;28;20293;-61
2024/03/11 03:58:12;;;;;;;6.20;5.00;;;6.30;99.90;;;;;;5072147;28;20210;-61
2024/03/11 04:00:39;;;;;;;5.73;5.23;;;6.30;99.90;;;;;;5073526;28;20722;-61
2024/03/11 04:03:06;;;;;;;9.07;5.27;;;6.30;99.90;;;;;;5073667;28;20209;-61
2024/03/11 04:05:34;;;;;;;5.97;5.37;;;6.30;99.90;;;;;;5073866;28;20250;-61
2024/03/11 04:08:01;;;;;;;6.17;5.43;;;6.30;99.90;;;;;;5070513;28;20194;-61
2024/03/11 04:10:28;;;;;;;15.27;7.13;;;6.30;99.90;;;;;;5071618;28;20186;-61
2024/03/11 04:12:58;;;;;;;31.40;8.17;;;6.30;99.90;;;;;;5073812;28;20198;-62
2024/03/11 04:15:25;;;;;;;26.53;8.07;;;6.30;99.90;;;;;;5071894;28;20197;-62
2024/03/11 04:17:53;;;;;;;42.17;7.00;;;6.30;99.90;;;;;;5077854;28;20627;-61
2024/03/11 04:20:29;;;;;;;33.10;7.83;;;6.40;99.90;;;;;;5072266;28;20203;-61
2024/03/11 04:22:58;;;;;;;19.27;5.30;;;6.40;99.90;;;;;;5072671;28;20193;-61
2024/03/11 04:25:28;;;;;;;13.93;5.80;;;6.40;99.90;;;;;;5069313;28;20214;-61
2024/03/11 04:27:57;;;;;;;11.83;5.63;;;6.40;99.90;;;;;;5055900;28;20231;-61
2024/03/11 04:30:39;;;;;;;13.97;4.57;;;6.40;99.90;;;;;;5072174;28;20201;-61
2024/03/11 04:33:07;;;;;;;21.67;5.30;;;6.50;99.90;;;;;;5072121;28;20209;-61
2024/03/11 04:35:35;;;;;;;12.97;5.20;;;6.50;99.90;;;;;;5071962;28;20201;-62
2024/03/11 04:38:03;;;;;;;22.30;5.40;;;6.50;99.90;;;;;;5061490;28;20205;-61
2024/03/11 04:40:36;;;;;;;17.30;5.70;;;6.40;99.90;;;;;;5073979;28;20563;-61
2024/03/11 04:43:04;;;;;;;28.90;5.93;;;6.40;99.90;;;;;;5069707;28;20191;-61
2024/03/11 04:45:32;;;;;;;21.83;6.37;;;6.40;99.90;;;;;;5072448;28;20218;-61
2024/03/11 04:48:00;;;;;;;27.60;8.07;;;6.40;99.90;;;;;;5073313;28;20206;-61
2024/03/11 04:50:30;;;;;;;34.50;7.67;;;6.40;99.90;;;;;;5071792;28;20194;-61
2024/03/11 04:53:03;;;;;;;43.90;7.57;;;6.40;99.90;;;;;;5071921;28;20255;-61
2024/03/11 04:55:31;;;;;;;40.77;7.90;;;6.40;99.90;;;;;;5072871;28;20198;-61
2024/03/11 04:58:00;;;;;;;26.80;7.03;;;6.40;99.90;;;;;;5071090;28;20198;-61
2024/03/11 05:00:28;;;;;;;34.80;6.30;;;6.40;99.90;;;;;;5073448;28;20237;-61
2024/03/11 05:02:57;;;;;;;52.17;5.83;;;6.40;99.90;;;;;;5071221;28;20536;-61
2024/03/11 05:05:25;;;;;;;71.30;8.10;;;6.40;99.90;;;;;;5071110;28;20256;-61
2024/03/11 05:07:53;;;;;;;24.20;5.57;;;6.40;99.90;;;;;;5083527;28;20202;-61
2024/03/11 05:10:21;;;;;;;42.93;7.03;;;6.30;99.90;;;;;;5071731;28;20197;-61
2024/03/11 05:12:49;;;;;;;50.80;6.77;;;6.30;99.90;;;;;;5071256;28;20285;-61
2024/03/11 05:15:17;;;;;;;66.77;8.83;;;6.30;99.90;;;;;;5072857;28;20244;-61
2024/03/11 05:17:44;;;;;;;51.23;6.77;;;6.30;99.90;;;;;;5070436;28;20288;-61
2024/03/11 05:20:14;;;;;;;105.20;7.40;;;6.30;99.90;;;;;;5071832;28;20539;-62
2024/03/11 05:22:43;;;;;;;34.00;7.70;;;6.20;99.90;;;;;;5071778;28;20205;-61
2024/03/11 05:25:14;;;;;;;36.57;8.10;;;6.20;99.90;;;;;;5071649;28;20711;-61
2024/03/11 05:27:44;;;;;;;23.33;7.37;;;6.20;99.90;;;;;;5071768;28;20228;-61
2024/03/11 05:30:11;;;;;;;40.67;6.23;;;6.20;99.90;;;;;;5071870;28;20287;-61
2024/03/11 05:32:40;;;;;;;32.90;6.90;;;6.20;99.90;;;;;;5071580;28;20651;-61
2024/03/11 05:35:08;;;;;;;34.73;7.57;;;6.20;99.90;;;;;;5069342;28;20731;-61
2024/03/11 05:37:36;;;;;;;20.27;5.80;;;6.20;99.90;;;;;;5073589;28;20240;-62
2024/03/11 05:40:05;;;;;;;18.63;6.87;;;6.20;99.90;;;;;;5074425;28;20189;-61
2024/03/11 05:42:34;;;;;;;21.93;6.20;;;6.20;99.90;;;;;;5076885;28;20210;-61
2024/03/11 05:45:02;;;;;;;9.87;5.33;;;6.20;99.90;;;;;;5089123;28;20718;-61
2024/03/11 05:47:30;;;;;;;12.17;5.00;;;6.20;99.90;;;;;;5073406;28;20206;-61
2024/03/11 05:49:57;;;;;;;12.63;5.63;;;6.20;99.90;;;;;;5073134;28;20198;-62
2024/03/11 05:52:25;;;;;;;11.00;5.87;;;6.20;99.90;;;;;;5073310;28;20218;-61
2024/03/11 05:54:53;;;;;;;9.07;5.33;;;6.10;99.90;;;;;;5074768;28;20535;-61
2024/03/11 05:57:30;;;;;;;13.70;6.10;;;6.20;99.90;;;;;;5075755;28;20978;-61
2024/03/11 05:59:58;;;;;;;7.23;5.67;;;6.20;99.90;;;;;;5091668;28;20233;-61
2024/03/11 06:02:25;;;;;;;10.50;5.33;;;6.20;99.90;;;;;;5073387;28;20210;-61
2024/03/11 06:04:52;;;;;;;7.43;5.37;;;6.20;99.90;;;;;;5074226;28;20229;-61
2024/03/11 06:07:24;;;;;;;5.93;5.33;;;6.20;99.90;;;;;;5079970;28;20206;-61
2024/03/11 06:09:52;;;;;;;6.53;5.90;;;6.20;99.90;;;;;;5075336;28;20267;-61
2024/03/11 06:12:19;;;;;;;8.80;6.00;;;6.20;99.90;;;;;;5074444;28;20204;-61
2024/03/11 06:14:48;;;;;;;8.83;6.70;;;6.20;99.90;;;;;;5074812;28;20596;-61
2024/03/11 06:17:16;;;;;;;10.33;6.63;;;6.20;99.90;;;;;;5073826;28;20202;-61
2024/03/11 06:19:44;;;;;;;10.00;6.70;;;6.20;99.90;;;;;;5072839;28;20208;-61
2024/03/11 06:22:15;;;;;;;10.87;6.50;;;6.30;99.90;;;;;;5080867;28;20194;-61
2024/03/11 06:24:43;;;;;;;6.23;5.63;;;6.30;99.90;;;;;;5068126;28;20650;-61
2024/03/11 06:27:11;;;;;;;10.50;6.80;;;6.30;99.90;;;;;;5073362;28;20190;-61
2024/03/11 06:29:39;;;;;;;7.03;6.37;;;6.40;99.90;;;;;;5073784;28;20198;-61
2024/03/11 06:32:07;;;;;;;8.10;7.30;;;6.40;99.90;;;;;;5076695;28;20234;-60
2024/03/11 06:34:35;;;;;;;7.20;6.50;;;6.50;99.90;;;;;;5061298;28;20209;-62
2024/03/11 06:37:02;;;;;;;8.60;6.97;;;6.60;99.90;;;;;;5071178;28;20194;-60
2024/03/11 06:39:31;;;;;;;6.70;5.97;;;6.60;99.90;;;;;;5073613;28;20222;-59
2024/03/11 06:42:01;;;;;;;7.50;5.70;;;6.70;99.90;;;;;;5074054;28;20595;-60
2024/03/11 06:44:29;;;;;;;8.00;7.00;;;6.80;99.90;;;;;;5073200;28;20307;-60
2024/03/11 06:46:59;;;;;;;7.70;6.80;;;6.80;99.90;;;;;;5073295;28;20232;-59
2024/03/11 06:49:26;;;;;;;7.97;6.60;;;6.90;99.90;;;;;;5073941;28;20194;-60
2024/03/11 06:51:53;;;;;;;8.17;6.90;;;6.90;99.90;;;;;;5075801;28;20205;-60
2024/03/11 06:54:21;;;;;;;8.03;6.00;;;7.00;99.90;;;;;;5073265;28;20527;-60
2024/03/11 06:56:48;;;;;;;7.80;7.00;;;7.00;99.90;;;;;;5073646;28;20233;-60
2024/03/11 06:59:16;;;;;;;10.10;6.93;;;7.10;99.90;;;;;;5071242;28;20236;-60
2024/03/11 07:01:43;;;;;;;7.70;7.00;;;7.20;99.90;;;;;;5067718;28;20654;-60
2024/03/11 07:04:11;;;;;;;8.43;7.53;;;7.20;99.90;;;;;;5073276;28;20218;-60
2024/03/11 07:06:39;;;;;;;9.43;7.67;;;7.30;99.90;;;;;;5073192;28;20220;-60
2024/03/11 07:09:07;;;;;;;8.17;7.40;;;7.40;99.90;;;;;;5071484;28;20210;-60
2024/03/11 07:11:34;;;;;;;8.07;7.20;;;7.60;99.90;;;;;;5073421;28;20194;-60
2024/03/11 07:14:02;;;;;;;8.80;7.57;;;7.70;99.90;;;;;;5074642;28;20229;-60
2024/03/11 07:16:31;;;;;;;7.97;7.20;;;7.80;99.90;;;;;;5073841;28;20214;-60
2024/03/11 07:18:59;;;;;;;7.53;6.73;;;7.90;99.90;;;;;;5073817;28;20624;-60
2024/03/11 07:21:28;;;;;;;8.90;8.00;;;8.00;99.90;;;;;;5074747;28;20643;-60
2024/03/11 07:23:55;;;;;;;13.17;7.93;;;8.10;99.90;;;;;;5073057;28;20199;-60
2024/03/11 07:26:23;;;;;;;11.90;9.67;;;8.20;99.90;;;;;;5070700;28;20221;-60
2024/03/11 07:28:50;;;;;;;13.73;10.23;;;8.30;99.90;;;;;;5068616;28;20211;-60
2024/03/11 07:31:18;;;;;;;13.97;9.53;;;8.40;99.90;;;;;;5054880;28;20631;-60
2024/03/11 07:33:48;;;;;;;11.57;9.50;;;8.40;99.90;;;;;;5072303;28;20293;-60
2024/03/11 07:36:16;;;;;;;17.87;9.63;;;8.50;99.90;;;;;;5073318;28;20209;-60
2024/03/11 07:38:43;;;;;;;18.30;9.47;;;8.50;99.90;;;;;;5073306;28;20203;-61
2024/03/11 07:41:11;;;;;;;13.13;9.73;;;8.50;99.90;;;;;;5077367;28;20221;-61
2024/03/11 07:43:38;;;;;;;18.10;9.93;;;8.50;99.90;;;;;;5073663;28;20240;-60
2024/03/11 07:46:05;;;;;;;28.73;10.23;;;8.50;99.90;;;;;;5072816;28;20246;-61
2024/03/11 07:48:33;;;;;;;41.00;9.07;;;8.60;99.90;;;;;;5073202;28;20347;-59
2024/03/11 07:51:01;;;;;;;13.23;9.17;;;8.60;99.90;;;;;;5065813;28;20277;-60
2024/03/11 07:53:29;;;;;;;21.10;10.03;;;8.60;99.90;;;;;;5071927;28;20202;-59
2024/03/11 07:55:56;;;;;;;30.90;8.47;;;8.60;99.90;;;;;;5072828;28;20643;-60
2024/03/11 07:58:23;;;;;;;26.33;9.63;;;8.60;99.90;;;;;;5072034;28;20816;-60
2024/03/11 08:00:51;;;;;;;29.93;9.70;;;8.60;99.90;;;;;;5069459;28;20271;-60
2024/03/11 08:03:19;;;;;;;37.80;10.97;;;8.60;99.90;;;;;;5080218;28;20243;-59
2024/03/11 08:05:47;;;;;;;46.03;11.27;;;8.60;99.90;;;;;;5072016;28;20641;-60
2024/03/11 08:08:17;;;;;;;43.33;10.60;;;8.60;99.90;;;;;;5053626;28;20201;-60
2024/03/11 08:10:50;;;;;;;18.40;10.00;;;8.60;99.90;;;;;;5070126;28;20216;-60
2024/03/11 08:13:18;;;;;;;40.33;9.93;;;8.50;99.90;;;;;;5068111;28;20193;-59
2024/03/11 08:15:45;;;;;;;14.23;10.20;;;8.50;99.90;;;;;;5073346;28;20305;-59
2024/03/11 08:18:13;;;;;;;51.83;11.20;;;8.40;99.90;;;;;;5070472;28;20247;-60
2024/03/11 08:20:40;;;;;;;27.03;10.33;;;8.40;99.90;;;;;;5073940;28;20200;-60
2024/03/11 08:23:08;;;;;;;53.20;12.63;;;8.40;99.90;;;;;;5071710;28;20201;-60
2024/03/11 08:25:35;;;;;;;41.53;13.03;;;8.50;99.90;;;;;;5073453;28;20221;-60
2024/03/11 08:28:03;;;;;;;48.63;10.77;;;8.50;99.90;;;;;;5071734;28;20203;-59
2024/03/11 08:30:30;;;;;;;16.63;10.03;;;8.60;99.90;;;;;;5070031;28;20290;-61
2024/03/11 08:32:59;;;;;;;19.47;11.67;;;8.60;99.90;;;;;;5073315;28;20237;-59
2024/03/11 08:35:27;;;;;;;15.40;10.93;;;8.80;99.90;;;;;;5072485;28;20241;-60
2024/03/11 08:37:54;;;;;;;21.40;10.13;;;8.90;99.90;;;;;;5072021;28;20278;-61
2024/03/11 08:40:22;;;;;;;19.90;10.50;;;9.10;99.90;;;;;;5074076;28;20289;-60
2024/03/11 08:42:51;;;;;;;23.17;10.37;;;9.20;99.90;;;;;;5082718;28;20215;-60
2024/03/11 08:45:18;;;;;;;20.90;11.30;;;9.40;99.90;;;;;;5070241;28;20203;-61
2024/03/11 08:47:47;;;;;;;24.77;10.63;;;9.50;99.90;;;;;;5071892;28;20254;-60
2024/03/11 08:50:17;;;;;;;11.50;9.93;;;9.70;99.90;;;;;;5067370;28;20290;-61
2024/03/11 08:52:48;;;;;;;15.10;11.10;;;9.80;99.90;;;;;;5071274;28;20204;-60
2024/03/11 08:55:16;;;;;;;12.40;9.97;;;10.00;99.90;;;;;;5070722;28;20204;-62
2024/03/11 08:57:49;;;;;;;19.63;10.57;;;10.10;99.90;;;;;;5071434;28;20220;-60
2024/03/11 09:00:17;;;;;;;18.23;10.77;;;10.20;99.90;;;;;;5071370;28;20326;-60
2024/03/11 09:02:45;;;;;;;16.70;10.50;;;10.30;99.90;;;;;;5072037;28;20282;-61
2024/03/11 09:05:17;;;;;;;14.40;11.20;;;10.40;99.90;;;;;;5068435;28;20213;-60
2024/03/11 09:07:46;;;;;;;13.93;10.97;;;10.50;99.90;;;;;;5069440;28;20205;-59
2024/03/11 09:10:14;;;;;;;18.97;11.33;;;10.60;99.90;;;;;;5070202;28;20188;-60
2024/03/11 09:12:42;;;;;;;11.90;10.23;;;10.60;99.90;;;;;;5068942;28;20218;-60
2024/03/11 09:15:16;;;;;;;21.47;12.17;;;10.70;99.90;;;;;;5076332;28;20677;-59
2024/03/11 09:17:50;;;;;;;14.70;11.73;;;10.70;99.90;;;;;;5092440;28;20213;-60
2024/03/11 09:20:21;;;;;;;13.37;11.40;;;10.80;99.90;;;;;;5076287;28;20291;-60
2024/03/11 09:22:50;;;;;;;13.53;10.97;;;11.00;99.90;;;;;;5075499;28;20288;-60
2024/03/11 09:25:23;;;;;;;15.40;11.93;;;11.00;99.90;;;;;;5072506;28;20244;-60
2024/03/11 09:27:54;;;;;;;15.77;12.57;;;11.10;99.90;;;;;;5073144;28;20216;-60
2024/03/11 09:30:21;;;;;;;13.97;11.73;;;11.10;99.90;;;;;;5073868;28;20225;-61
2024/03/11 09:32:50;;;;;;;13.63;11.90;;;11.20;99.90;;;;;;5077108;28;20511;-61
2024/03/11 09:35:18;;;;;;;17.40;13.13;;;11.30;99.90;;;;;;5072023;28;20593;-60
2024/03/11 09:37:47;;;;;;;17.33;12.47;;;11.50;99.90;;;;;;5074124;28;20205;-60
2024/03/11 09:40:19;;;;;;;16.70;12.53;;;11.60;99.90;;;;;;5076840;28;20284;-59
2024/03/11 09:42:47;;;;;;;16.40;11.77;;;11.70;99.90;;;;;;5073216;28;20683;-61
2024/03/11 09:45:20;;;;;;;13.80;11.23;;;11.60;99.90;;;;;;5075077;28;20227;-60
2024/03/11 09:47:52;;;;;;;19.50;14.27;;;11.70;99.90;;;;;;5089528;28;20228;-60
2024/03/11 09:50:27;;;;;;;20.77;14.97;;;11.70;99.80;;;;;;5074363;28;20205;-60
2024/03/11 09:52:57;;;;;;;22.03;15.13;;;11.90;99.90;;;;;;5071902;28;20238;-60
2024/03/11 09:55:31;;;;;;;21.20;15.93;;;12.00;99.90;;;;;;5073224;28;20199;-60
2024/03/11 09:58:02;;;;;;;20.27;14.77;;;12.10;99.70;;;;;;5074445;28;20201;-59
2024/03/11 10:00:32;;;;;;;24.07;15.97;;;12.30;99.70;;;;;;5073958;28;20675;-59
2024/03/11 10:03:03;;;;;;;24.23;17.47;;;12.40;99.60;;;;;;5071763;28;20198;-58
2024/03/11 10:05:30;;;;;;;26.47;17.63;;;12.50;99.50;;;;;;5071158;28;20254;-58
2024/03/11 10:07:59;;;;;;;24.03;17.63;;;12.50;99.50;;;;;;5075412;28;20209;-58
2024/03/11 10:10:30;;;;;;;22.20;16.93;;;12.60;99.60;;;;;;5072745;28;20201;-58
2024/03/11 10:12:58;;;;;;;23.33;16.40;;;12.80;99.70;;;;;;5073037;28;20193;-61
2024/03/11 10:15:30;;;;;;;21.93;15.70;;;13.00;99.70;;;;;;5074010;28;20213;-58
2024/03/11 10:18:25;;;;;;;19.73;15.23;;;13.20;99.50;;;;;;5072039;28;20547;-58
2024/03/11 10:20:59;;;;;;;18.93;14.67;;;13.40;99.30;;;;;;5071681;28;20194;-60
2024/03/11 10:23:27;;;;;;;19.07;14.53;;;13.60;98.90;;;;;;5073091;28;20208;-59
2024/03/11 10:26:17;;;;;;;17.23;13.33;;;13.70;98.60;;;;;;5072162;28;20241;-58
2024/03/11 10:28:49;;;;;;;15.67;12.03;;;13.80;98.60;;;;;;5072379;28;20255;-60
2024/03/11 10:31:28;;;;;;;15.30;11.57;;;13.90;98.30;;;;;;5072286;28;20208;-59
2024/03/11 10:34:10;;;;;;;13.40;11.07;;;14.00;97.60;;;;;;5073242;28;20201;-59
2024/03/11 10:36:44;;;;;;;11.80;10.53;;;14.00;97.40;;;;;;5074405;28;20212;-60
2024/03/11 10:41:50;;;;;;;12.77;10.13;;;14.10;97.40;;;;;;5072726;28;20861;-59
2024/03/11 10:44:33;;;;;;;9.73;8.60;;;14.10;97.30;;;;;;5072812;28;20198;-58
2024/03/11 10:47:14;;;;;;;11.87;8.37;;;14.10;97.20;;;;;;5074353;28;20221;-58
2024/03/11 10:49:47;;;;;;;10.20;7.50;;;14.20;97.10;;;;;;5072834;28;20208;-58
2024/03/11 10:52:20;;;;;;;8.83;7.27;;;14.30;97.00;;;;;;5071141;28;20291;-58
2024/03/11 10:54:50;;;;;;;9.77;7.53;;;14.50;97.10;;;;;;5074386;28;20220;-58
2024/03/11 10:57:39;;;;;;;9.07;8.10;;;14.70;97.10;;;;;;5071918;28;20622;-58
2024/03/11 11:02:49;;;;;;;10.17;7.67;;;15.10;96.30;;;;;;5073887;28;20623;-58
2024/03/11 11:05:21;;;;;;;12.00;7.97;;;15.20;95.90;;;;;;5070941;28;20238;-58
2024/03/11 11:07:51;;;;;;;8.97;7.30;;;15.30;95.80;;;;;;5072584;28;20199;-58
2024/03/11 11:10:21;;;;;;;6.90;5.83;;;15.40;95.70;;;;;;5072342;28;20201;-59
2024/03/11 11:12:52;;;;;;;8.83;7.20;;;15.60;95.70;;;;;;5071377;28;20296;-58
2024/03/11 11:15:21;;;;;;;8.67;6.47;;;15.70;95.60;;;;;;5071622;28;20199;-58
2024/03/11 11:17:49;;;;;;;7.93;6.50;;;15.90;95.40;;;;;;5072806;28;20209;-58
2024/03/11 11:23:05;;;;;;;8.13;4.37;;;16.20;94.80;;;;;;5073369;28;20251;-58
2024/03/11 11:25:39;;;;;;;10.97;6.13;;;16.30;94.40;;;;;;5072582;28;20281;-58
2024/03/11 11:28:25;;;;;;;8.93;6.10;;;16.50;94.10;;;;;;5070384;28;20195;-58
2024/03/11 11:31:13;;;;;;;6.53;4.97;;;16.70;94.00;;;;;;5070456;28;20965;-58
2024/03/11 11:33:54;;;;;;;8.53;5.30;;;16.80;93.10;;;;;;5071654;28;20209;-58
2024/03/11 11:36:39;;;;;;;8.30;5.03;;;16.80;91.80;;;;;;5070757;28;20206;-58
2024/03/11 11:39:27;;;;;;;4.77;4.10;;;16.70;91.40;;;;;;5069842;28;20310;-58
2024/03/11 11:41:57;;;;;;;6.27;5.03;;;16.70;91.50;;;;;;5071663;28;20240;-58
2024/03/11 11:44:28;;;;;;;6.30;4.83;;;16.70;91.40;;;;;;5069397;28;20351;-58
2024/03/11 11:47:13;;;;;;;9.00;4.90;;;16.70;92.00;;;;;;5070754;28;20212;-58
2024/03/11 11:49:43;;;;;;;8.33;4.67;;;16.80;92.10;;;;;;5070070;28;20196;-58
2024/03/11 11:52:14;;;;;;;7.43;3.70;;;16.80;91.90;;;;;;5071679;28;20285;-58
2024/03/11 11:54:42;;;;;;;6.57;3.00;;;16.80;91.70;;;;;;5073202;28;20200;-58
2024/03/11 11:57:15;;;;;;;3.90;2.27;;;16.80;91.00;;;;;;5069029;28;20196;-58
2024/03/11 11:59:46;;;;;;;3.93;2.43;;;16.80;90.20;;;;;;5071005;28;20233;-59
2024/03/11 12:02:21;;;;;;;9.23;3.07;;;16.90;90.20;;;;;;5069685;28;20226;-58
2024/03/11 12:04:51;;;;;;;6.20;3.30;;;16.90;89.90;;;;;;5071280;28;20643;-58
2024/03/11 12:07:25;;;;;;;3.20;1.90;;;16.90;88.30;;;;;;5071031;28;20284;-59
2024/03/11 12:09:58;;;;;;;5.87;2.00;;;17.00;87.40;;;;;;5072196;28;20784;-58
2024/03/11 12:12:45;;;;;;;15.87;2.70;;;17.00;87.90;;;;;;5071466;28;20209;-58
2024/03/11 12:15:17;;;;;;;5.87;1.60;;;17.10;88.80;;;;;;5071453;28;20296;-58
2024/03/11 12:17:49;;;;;;;3.97;1.80;;;17.20;88.30;;;;;;5071686;28;20257;-59
2024/03/11 12:22:43;;;;;;;5.37;1.63;;;17.50;85.90;;;;;;5072280;28;20220;-59
2024/03/11 12:25:13;;;;;;;4.73;2.40;;;17.50;84.40;;;;;;5071127;28;20230;-59
2024/03/11 12:27:43;;;;;;;3.07;2.03;;;17.50;83.70;;;;;;5070570;28;20225;-58
2024/03/11 12:30:18;;;;;;;5.87;2.13;;;17.40;83.10;;;;;;5071700;28;20288;-58
2024/03/11 12:33:04;;;;;;;4.80;2.63;;;17.30;82.50;;;;;;5067281;28;20206;-58
2024/03/11 12:35:37;;;;;;;4.30;2.23;;;17.30;83.70;;;;;;5071055;28;20621;-58
2024/03/11 12:38:07;;;;;;;5.07;2.53;;;17.30;83.20;;;;;;5071914;28;20215;-58
2024/03/11 12:40:34;;;;;;;2.40;1.40;;;17.20;83.40;;;;;;5070762;28;20276;-58
2024/03/11 12:43:19;;;;;;;5.30;2.33;;;17.20;80.90;;;;;;5072373;28;20196;-58
2024/03/11 12:45:57;;;;;;;8.37;3.47;;;17.10;81.80;;;;;;5069062;28;20618;-58
2024/03/11 12:48:27;;;;;;;3.70;2.20;;;17.10;81.70;;;;;;5070804;28;20206;-59
2024/03/11 12:50:57;;;;;;;2.37;1.93;;;17.00;82.00;;;;;;5068519;28;20293;-58
2024/03/11 12:53:26;;;;;;;2.73;1.93;;;17.00;82.70;;;;;;5070257;28;20231;-58
2024/03/11 12:56:07;;;;;;;7.07;2.00;;;17.00;82.80;;;;;;5070947;28;20197;-59
2024/03/11 12:58:39;;;;;;;3.63;1.70;;;17.00;83.10;;;;;;5068903;28;20198;-58
2024/03/11 13:01:16;;;;;;;4.97;2.07;;;17.00;83.70;;;;;;5072487;28;20218;-58
2024/03/11 13:03:46;;;;;;;7.17;3.13;;;17.10;81.90;;;;;;5071468;28;20594;-59
2024/03/11 13:06:18;;;;;;;4.27;2.70;;;17.20;82.10;;;;;;5070710;28;20211;-58
2024/03/11 13:08:49;;;;;;;1.93;1.50;;;17.30;82.00;;;;;;5072300;28;20351;-58
2024/03/11 13:11:17;;;;;;;3.63;1.70;;;17.30;82.60;;;;;;5067954;28;20548;-58